• Join FlightAware (Why Join?)
  • Login
  • US Flag 
09:46PM EST


 

Airport Tracker/Info


-or-


 

Live Flight TrackerFlight Track Log ✈ UAL3776 ✈ 01-May-2013 ✈ KCLT - KORD

Flight Track Log - Related Links

Times and Time Zones

All times are in EDT time to prevent confusion due to time zone crossing. See the UAL3776 flight status page for this flight to view local times or setup timezone preferences in your user account.

Time Position Orientation Groundspeed Altitude Reporting Facility
EDT Latitude Longitude Course Direction KTS MPH feet Rate Location/Type
12:28PM 35.2331 -80.9594 52° Northeast 150 173 1,800  Level Atlanta Center
12:29PM 35.2778 -80.9936 328° Northwest 222 255 3,100 1,560 Climbing Atlanta Center
12:30PM 35.3097 -81.0128 334° Northwest 262 302 4,100 2,580 Climbing Atlanta Center
12:31PM 35.1167 -81.1952 270° West  Level FlightAware Approximate
12:31PM 35.3758 -80.9925 14° North 280 322 6,800  Level Atlanta Center
12:32PM 35.2083 -81.2167 North  Level FlightAware Approximate
12:32PM 35.4483 -80.9719 13° North 270 311 9,500  Level Atlanta Center
12:33PM 35.2874 -81.1602 52° Northeast  Level FlightAware Approximate
12:33PM 35.5311 -80.9458 14° North 286 329 10,900  Level Atlanta Center
12:34PM 35.3546 -81.0548 52° Northeast  Level FlightAware Approximate
12:34PM 35.6242 -80.9142 15° North 329 379 13,300  Level Atlanta Center
12:35PM 35.7197 -80.8900 12° North 351 404 15,400 2,040 Climbing Atlanta Center
12:36PM 35.8214 -80.8733 North 367 422 17,400 1,740 Climbing Atlanta Center
12:37PM 35.9258 -80.8744 360° North 373 429 18,900 1,440 Climbing Atlanta Center
12:38PM 36.0194 -80.9478 328° Northwest 367 422 20,300 1,620 Climbing Atlanta Center
12:39PM 36.1092 -81.0317 323° Northwest 399 459 22,200 1,620 Climbing Atlanta Center
12:40PM 36.1928 -81.1314 316° Northwest 412 474 23,600 1,320 Climbing Atlanta Center
12:41PM 36.2681 -81.2242 315° West 418 481 24,900 1,200 Climbing Atlanta Center
12:42PM 36.3517 -81.3294 315° West 424 488 26,100 1,200 Climbing Atlanta Center
12:43PM 36.4353 -81.4325 315° West 424 488 27,300 1,140 Climbing Atlanta Center
12:44PM 36.5208 -81.5408 315° West 430 495 28,400 1,320 Climbing Atlanta Center
12:45PM 36.6108 -81.6569 314° West 425 489 30,000 1,260 Climbing Atlanta Center
12:47PM 36.7886 -81.8736 316° Northwest 417 480 32,600 1,200 Climbing Indianapolis Center
12:48PM 36.8703 -81.9753 315° West 415 478 33,900 1,140 Climbing Indianapolis Center
12:49PM 36.9622 -82.0919 315° West 406 467 35,000 900 Climbing Indianapolis Center
12:50PM 37.0411 -82.1931 314° West 408 470 35,800 480 Climbing Indianapolis Center
12:51PM 37.1211 -82.2950 315° West 410 472 36,000 60 Climbing Indianapolis Center
12:52PM 37.2047 -82.4019 314° West 427 491 36,000  Level Indianapolis Center
12:53PM 37.2908 -82.5119 315° West 440 506 36,000  Level Indianapolis Center
12:54PM 37.3919 -82.6428 314° West 447 514 36,000  Level Indianapolis Center
12:55PM 37.4778 -82.7539 314° West 446 513 36,000  Level Indianapolis Center
12:56PM 37.5644 -82.8675 314° West 449 517 36,000  Level Indianapolis Center
12:57PM 37.6503 -82.9783 314° West 443 510 36,000  Level Indianapolis Center
12:58PM 37.7489 -83.0717 323° Northwest 440 506 36,000  Level Indianapolis Center
12:59PM 37.8672 -83.1794 324° Northwest 446 513 36,000  Level Indianapolis Center
01:00PM 37.9675 -83.2714 324° Northwest 445 512 36,000  Level Indianapolis Center
01:01PM 38.0675 -83.3625 324° Northwest 444 511 36,000  Level Indianapolis Center
01:02PM 38.1689 -83.4542 325° Northwest 445 512 36,000  Level Indianapolis Center
01:03PM 38.2681 -83.5467 324° Northwest 443 510 36,000  Level Indianapolis Center
01:04PM 38.3850 -83.6556 324° Northwest 445 512 36,000  Level Indianapolis Center
01:05PM 38.4847 -83.7478 324° Northwest 443 510 36,000  Level Indianapolis Center
01:06PM 38.5853 -83.8419 324° Northwest 445 512 36,000  Level Indianapolis Center
01:07PM 38.6894 -83.9361 325° Northwest 445 512 36,000  Level Indianapolis Center
01:08PM 38.7903 -84.0317 324° Northwest 448 516 36,000  Level Indianapolis Center
01:10PM 38.8925 -84.1283 324° Northwest 450 518 36,000  Level Indianapolis Center
01:11PM 38.9942 -84.2228 324° Northwest 448 516 36,000  Level Indianapolis Center
01:12PM 39.0975 -84.3208 324° Northwest 453 521 36,000  Level Indianapolis Center
01:13PM 39.2000 -84.4197 323° Northwest 454 522 36,000  Level Indianapolis Center
01:14PM 39.3219 -84.5356 324° Northwest 460 529 36,000 -1,020 Level Indianapolis Center
01:15PM 39.4258 -84.6342 324° Northwest 458 527 33,900 -2,760 Descending Indianapolis Center
01:16PM 39.5300 -84.7339 324° Northwest 460 529 30,300 -2,820 Descending Indianapolis Center
01:17PM 39.6347 -84.8358 323° Northwest 463 533 28,100 -1,140 Descending Indianapolis Center
01:18PM 39.7331 -84.9311 323° Northwest 458 527 28,000 -600 Descending Indianapolis Center
01:19PM 39.8361 -85.0328 323° Northwest 462 532 26,900 -1,020 Descending Indianapolis Center
01:20PM 39.9586 -85.1494 324° Northwest 466 536 26,000 -480 Descending Indianapolis Center
01:21PM 40.0611 -85.2522 323° Northwest 463 533 26,000  Level Indianapolis Center
01:22PM 40.1661 -85.3547 323° Northwest 469 540 26,000  Level Indianapolis Center
01:23PM 40.2689 -85.4569 323° Northwest 464 534 26,000 -300 Level Indianapolis Center
01:24PM 40.3714 -85.5586 323° Northwest 462 532 25,500 -960 Descending Indianapolis Center
01:25PM 40.4767 -85.6608 324° Northwest 467 537 24,100 -1,320 Descending Indianapolis Center
01:26PM 40.6058 -85.7528 332° Northwest 458 527 22,800 -1,020 Descending Indianapolis Center
01:27PM 40.7053 -85.8650 319° Northwest 468 539 22,000 -420 Descending Indianapolis Center
01:28PM 40.8028 -85.9711 321° Northwest 456 525 22,000  Level Indianapolis Center
01:29PM 40.9000 -86.0775 320° Northwest 454 522 22,000  Level Indianapolis Center
01:30PM 40.9969 -86.1839 320° Northwest 450 518 22,000  Level Indianapolis Center
01:31PM 41.0942 -86.2906 320° Northwest 451 519 22,000 -840 Level Indianapolis Center
01:32PM 41.1900 -86.3964 320° Northwest 446 513 20,300 -2,160 Descending Indianapolis Center
01:33PM 41.3133 -86.5339 320° Northwest 430 495 17,100 -2,520 Descending Chicago Center
01:35PM 41.3978 -86.6264 321° Northwest 400 460 14,600 -2,400 Descending Chicago Center
01:36PM 41.4800 -86.7189 320° Northwest 395 455 12,200 -1,320 Descending Chicago Center
01:37PM 41.5850 -86.7686 340° North 411 473 12,000 -60 Descending Chicago Center
01:38PM 41.7108 -86.8019 349° North 393 452 12,100 -540 Climbing Chicago Center
01:39PM 41.8189 -86.8189 353° North 395 455 11,000 -540 Descending Chicago Center
01:40PM 41.9011 -86.8686 336° Northwest 333 383 11,000 -480 Level Chicago Center
01:41PM 41.9567 -86.9575 310° West 313 360 10,100 -480 Descending Chicago Center
01:42PM 41.9817 -87.0656 287° West 304 350 10,100 -360 Level Chicago Center
01:43PM 41.9831 -87.1950 271° West 293 337 9,400 -960 Descending Chicago Center
01:44PM 41.9831 -87.2944 270° West 274 315 8,200 -1,080 Descending Chicago Center
01:45PM 41.9831 -87.3814 270° West 238 274 7,200 -600 Descending Chicago Center
01:46PM 41.9828 -87.4583 270° West 208 239 7,000 -540 Descending Chicago Center
01:47PM 41.9833 -87.5167 271° West 190 219 6,300 -1,140 Descending Chicago TRACON
01:48PM 41.9833 -87.5833 270° West 180 207 5,100 -1,140 Descending Chicago TRACON
01:49PM 41.9833 -87.6500 270° West 185 213 4,100 -1,020 Descending Chicago TRACON